Terminal Aerodrome Forecast
Issued by NWS

Home | Current Version | Previous Version | Text Only | Print | Product List | Glossary On
Versions: 1 2 3 4 5 6 7 8 9 10 11 12 13 14 15 16 17 18 19 20 21 22 23 24 25 26 27 28 29 30
000
FTUS45 KPSR 250800 AAA
TAFPHX
TAF AMD
KPHX 250855Z 2509/2606 26008KT P6SM FEW150 BKN250
     FM251200 14006KT P6SM SCT250
     FM252300 25010KT P6SM SCT080 SCT250=

USA.gov is the U.S. government's official web portal to all federal, state and local government web resources and services.